Aérodrome :
LOGIN :

S'inscrire | Disclaimer

   EN    FR    IT 

 










Légende :    VFR   VFR Marginal   IFR   IFR Intensif   IFR Très Intensif
Visi : 
Plafond : 
>= 8 km
>= 3000ft
5 à 8 km
1000 à 3000 ft
1500m à 5 km
500 à 1000 ft
800 à 1500m
200 à 500 ft
< 800m
< 200 ft
Symboles :   Orages  Brouillard  Fortes neiges  Fortes précipitations  Vent > 20 kt
SIGMETs :   Divers  Orages  Givrage  Turbulence  Onde Orograph.  Cendres Volcan.







- Altitude de l'aérodrome : 82 ft
- Code IATA : ALG


DAAG - Alger Houari Boumedienne

DERNIER METAR :
  • 262330Z 00000KT 0700 R09/P2000N FG FEW010 21/21 Q1015

METARs EXPIRÉS :
  • 262300Z 11003KT 0200 R09/P2000N FG SCT010 22/22 Q1015
  • 262230Z 10004KT 0200 R09/P2000U FG SCT010 22/22 Q1015
  • 262200Z VRB02KT 0900 R09/P2000U FG SCT010 22/22 Q1016
  • 262130Z 09004KT 3000 BR SCT010 22/21 Q1016
  • 262100Z 07005KT 040V210 3000 BR SCT010 22/21 Q1016

TAF TAF DAAG
Valide du 27 à 00h jusqu'au 28 à 00h UTC


262300Z 2700/2724 VRB02KT 0200 FG SCT010
PROB40
TEMPO 2700/2706 BKN010
BECMG 2703/2706 3000 BR
BECMG 2706/2709 02010KT 6000 NSW
BECMG 2716/2718 VRB02KT
Pas de NOTAMs connus pour ce terrain.



MET'MAP, la Météo Aéronautique d'un coup d'oeil ! - Copyright ORBIFLY Décembre 2007 - Disclaimer

ORBIFLY MET'MAP TEAM :

Programmation & Développement : Alexandra Zaïnal
Conception & Développement : Baudouin d'Aumeries
Co-Programmation & Développement : Marc-Olivier Méhu
Soutien technique & logistique : Manuel Goepfert

Contact : metmap@orbifly.com




SOURCES & CREDITS :

   NOAA